sensor_id;sensor_type;location;lat;lon;timestamp;P1;durP1;ratioP1;P2;durP2;ratioP2
21546;SDS011;41275;51.912;4.388;2022-09-06T02:54:35;4.53;;;2.40;;
21546;SDS011;41275;51.912;4.388;2022-09-06T05:49:20;9.27;;;5.17;;
21546;SDS011;41275;51.912;4.388;2022-09-06T06:08:01;8.95;;;4.70;;
21546;SDS011;41275;51.912;4.388;2022-09-06T06:14:07;8.32;;;5.30;;
21546;SDS011;41275;51.912;4.388;2022-09-06T06:19:29;7.45;;;4.90;;
21546;SDS011;41275;51.912;4.388;2022-09-06T06:25:01;8.40;;;4.70;;
21546;SDS011;41275;51.912;4.388;2022-09-06T06:30:42;10.20;;;5.05;;
21546;SDS011;41275;51.912;4.388;2022-09-06T06:36:27;7.65;;;5.07;;
21546;SDS011;41275;51.912;4.388;2022-09-06T06:42:10;10.03;;;4.57;;
21546;SDS011;41275;51.912;4.388;2022-09-06T06:47:48;7.60;;;4.33;;
21546;SDS011;41275;51.912;4.388;2022-09-06T06:59:24;6.75;;;4.40;;
21546;SDS011;41275;51.912;4.388;2022-09-06T07:04:48;6.72;;;4.00;;
21546;SDS011;41275;51.912;4.388;2022-09-06T07:10:10;5.57;;;3.60;;
21546;SDS011;41275;51.912;4.388;2022-09-06T07:15:37;6.72;;;3.63;;
21546;SDS011;41275;51.912;4.388;2022-09-06T07:21:28;8.43;;;3.67;;
21546;SDS011;41275;51.912;4.388;2022-09-06T07:26:52;6.35;;;3.58;;
21546;SDS011;41275;51.912;4.388;2022-09-06T07:32:14;6.13;;;3.70;;
21546;SDS011;41275;51.912;4.388;2022-09-06T07:37:35;9.18;;;4.10;;
21546;SDS011;41275;51.912;4.388;2022-09-06T07:42:59;6.33;;;4.03;;
21546;SDS011;41275;51.912;4.388;2022-09-06T07:48:21;5.97;;;3.80;;
21546;SDS011;41275;51.912;4.388;2022-09-06T07:53:43;8.38;;;4.30;;
21546;SDS011;41275;51.912;4.388;2022-09-06T07:59:10;7.72;;;4.40;;
21546;SDS011;41275;51.912;4.388;2022-09-06T08:04:34;6.80;;;4.40;;
21546;SDS011;41275;51.912;4.388;2022-09-06T08:09:55;8.00;;;4.80;;
21546;SDS011;41275;51.912;4.388;2022-09-06T08:15:23;7.37;;;4.60;;
21546;SDS011;41275;51.912;4.388;2022-09-06T08:20:45;8.98;;;5.20;;
21546;SDS011;41275;51.912;4.388;2022-09-06T08:26:06;7.95;;;4.97;;
21546;SDS011;41275;51.912;4.388;2022-09-06T08:31:31;9.68;;;5.03;;
21546;SDS011;41275;51.912;4.388;2022-09-06T08:43:16;5.90;;;3.73;;
21546;SDS011;41275;51.912;4.388;2022-09-06T08:48:53;6.43;;;4.18;;
21546;SDS011;41275;51.912;4.388;2022-09-06T09:00:23;7.82;;;4.65;;
21546;SDS011;41275;51.912;4.388;2022-09-06T09:05:46;7.38;;;4.57;;
21546;SDS011;41275;51.912;4.388;2022-09-06T09:11:22;8.13;;;4.57;;
21546;SDS011;41275;51.912;4.388;2022-09-06T09:17:11;9.68;;;5.00;;
21546;SDS011;41275;51.912;4.388;2022-09-06T09:22:52;8.13;;;4.47;;
21546;SDS011;41275;51.912;4.388;2022-09-06T09:46:43;7.75;;;4.80;;
21546;SDS011;41275;51.912;4.388;2022-09-06T09:57:52;9.60;;;5.13;;
21546;SDS011;41275;51.912;4.388;2022-09-06T10:03:26;6.83;;;3.73;;
21546;SDS011;41275;51.912;4.388;2022-09-06T10:21:09;8.35;;;4.50;;
21546;SDS011;41275;51.912;4.388;2022-09-06T10:45:14;8.70;;;5.43;;
21546;SDS011;41275;51.912;4.388;2022-09-06T11:04:16;7.72;;;4.72;;
21546;SDS011;41275;51.912;4.388;2022-09-06T11:21:59;7.55;;;2.53;;
21546;SDS011;41275;51.912;4.388;2022-09-06T11:27:40;5.80;;;3.47;;
21546;SDS011;41275;51.912;4.388;2022-09-06T11:33:10;4.78;;;1.95;;
21546;SDS011;41275;51.912;4.388;2022-09-06T11:39:09;4.63;;;2.03;;
21546;SDS011;41275;51.912;4.388;2022-09-06T12:12:04;3.10;;;1.10;;
21546;SDS011;41275;51.912;4.388;2022-09-06T12:17:25;3.38;;;1.00;;
21546;SDS011;41275;51.912;4.388;2022-09-06T12:28:18;3.08;;;0.95;;
21546;SDS011;41275;51.912;4.388;2022-09-06T12:33:44;5.43;;;1.20;;
21546;SDS011;41275;51.912;4.388;2022-09-06T12:39:08;2.65;;;0.85;;
21546;SDS011;41275;51.912;4.388;2022-09-06T12:44:46;3.73;;;1.10;;
21546;SDS011;41275;51.912;4.388;2022-09-06T12:50:17;3.70;;;1.00;;
21546;SDS011;41275;51.912;4.388;2022-09-06T12:55:45;3.35;;;1.00;;
21546;SDS011;41275;51.912;4.388;2022-09-06T13:01:11;6.43;;;1.17;;
21546;SDS011;41275;51.912;4.388;2022-09-06T13:06:56;3.27;;;1.00;;
21546;SDS011;41275;51.912;4.388;2022-09-06T13:12:43;4.88;;;1.30;;
21546;SDS011;41275;51.912;4.388;2022-09-06T13:31:29;5.43;;;1.40;;
21546;SDS011;41275;51.912;4.388;2022-09-06T13:37:52;3.93;;;1.30;;
21546;SDS011;41275;51.912;4.388;2022-09-06T13:44:17;4.80;;;1.30;;
21546;SDS011;41275;51.912;4.388;2022-09-06T13:56:57;4.43;;;0.98;;
21546;SDS011;41275;51.912;4.388;2022-09-06T14:02:20;5.47;;;1.90;;
21546;SDS011;41275;51.912;4.388;2022-09-06T14:08:04;2.25;;;0.70;;
21546;SDS011;41275;51.912;4.388;2022-09-06T14:19:39;3.47;;;0.80;;
21546;SDS011;41275;51.912;4.388;2022-09-06T14:25:16;2.45;;;0.90;;
21546;SDS011;41275;51.912;4.388;2022-09-06T14:44:20;5.72;;;0.90;;
21546;SDS011;41275;51.912;4.388;2022-09-06T14:55:36;4.53;;;1.33;;
21546;SDS011;41275;51.912;4.388;2022-09-06T15:01:47;4.95;;;1.00;;
21546;SDS011;41275;51.912;4.388;2022-09-06T15:07:37;7.70;;;1.30;;
21546;SDS011;41275;51.912;4.388;2022-09-06T15:19:25;6.28;;;1.60;;
21546;SDS011;41275;51.912;4.388;2022-09-06T15:24:48;4.90;;;1.25;;
21546;SDS011;41275;51.912;4.388;2022-09-06T15:37:05;4.32;;;1.40;;
21546;SDS011;41275;51.912;4.388;2022-09-06T15:42:27;2.42;;;1.00;;
21546;SDS011;41275;51.912;4.388;2022-09-06T15:48:01;9.05;;;4.03;;
21546;SDS011;41275;51.912;4.388;2022-09-06T15:53:25;3.60;;;1.47;;
21546;SDS011;41275;51.912;4.388;2022-09-06T15:59:04;3.87;;;1.27;;
21546;SDS011;41275;51.912;4.388;2022-09-06T16:04:29;5.60;;;1.40;;
21546;SDS011;41275;51.912;4.388;2022-09-06T16:09:50;7.67;;;2.30;;
21546;SDS011;41275;51.912;4.388;2022-09-06T16:15:21;6.43;;;2.03;;
21546;SDS011;41275;51.912;4.388;2022-09-06T16:20:42;6.63;;;1.63;;
21546;SDS011;41275;51.912;4.388;2022-09-06T16:26:04;5.43;;;1.70;;
21546;SDS011;41275;51.912;4.388;2022-09-06T16:31:27;9.38;;;1.85;;
21546;SDS011;41275;51.912;4.388;2022-09-06T16:36:48;4.30;;;2.00;;
21546;SDS011;41275;51.912;4.388;2022-09-06T16:42:13;5.10;;;2.17;;
21546;SDS011;41275;51.912;4.388;2022-09-06T16:47:37;4.35;;;1.58;;
21546;SDS011;41275;51.912;4.388;2022-09-06T17:12:25;6.20;;;1.70;;
21546;SDS011;41275;51.912;4.388;2022-09-06T17:17:49;3.20;;;1.33;;
21546;SDS011;41275;51.912;4.388;2022-09-06T17:23:10;7.40;;;3.22;;
21546;SDS011;41275;51.912;4.388;2022-09-06T17:28:48;5.15;;;1.60;;
21546;SDS011;41275;51.912;4.388;2022-09-06T17:34:24;7.10;;;1.83;;
21546;SDS011;41275;51.912;4.388;2022-09-06T18:37:48;3.70;;;1.60;;
21546;SDS011;41275;51.912;4.388;2022-09-06T19:08:16;4.90;;;1.65;;
21546;SDS011;41275;51.912;4.388;2022-09-06T19:45:52;7.78;;;1.95;;
21546;SDS011;41275;51.912;4.388;2022-09-06T19:52:23;5.80;;;1.70;;
21546;SDS011;41275;51.912;4.388;2022-09-06T20:29:41;7.93;;;4.45;;
21546;SDS011;41275;51.912;4.388;2022-09-06T21:00:30;9.65;;;4.20;;
21546;SDS011;41275;51.912;4.388;2022-09-06T21:12:09;11.65;;;4.68;;
21546;SDS011;41275;51.912;4.388;2022-09-06T21:18:09;15.63;;;4.07;;
21546;SDS011;41275;51.912;4.388;2022-09-06T21:23:39;4.25;;;1.33;;
21546;SDS011;41275;51.912;4.388;2022-09-06T21:36:09;5.47;;;1.70;;
21546;SDS011;41275;51.912;4.388;2022-09-06T21:41:44;5.50;;;2.10;;
21546;SDS011;41275;51.912;4.388;2022-09-06T21:47:20;7.32;;;2.83;;
21546;SDS011;41275;51.912;4.388;2022-09-06T21:52:42;5.72;;;2.42;;
21546;SDS011;41275;51.912;4.388;2022-09-06T21:58:12;7.10;;;2.75;;
21546;SDS011;41275;51.912;4.388;2022-09-06T22:03:35;5.77;;;3.00;;
21546;SDS011;41275;51.912;4.388;2022-09-06T22:09:08;5.60;;;3.20;;
21546;SDS011;41275;51.912;4.388;2022-09-06T22:14:31;8.43;;;3.97;;
21546;SDS011;41275;51.912;4.388;2022-09-06T22:19:55;9.02;;;4.53;;
21546;SDS011;41275;51.912;4.388;2022-09-06T22:44:41;14.40;;;5.90;;
21546;SDS011;41275;51.912;4.388;2022-09-06T22:50:22;16.57;;;5.77;;
21546;SDS011;41275;51.912;4.388;2022-09-06T23:02:35;8.17;;;4.23;;
21546;SDS011;41275;51.912;4.388;2022-09-06T23:21:03;7.75;;;4.40;;
21546;SDS011;41275;51.912;4.388;2022-09-06T23:27:47;15.95;;;8.98;;
21546;SDS011;41275;51.912;4.388;2022-09-06T23:32:55;8.37;;;3.67;;
21546;SDS011;41275;51.912;4.388;2022-09-06T23:38:16;7.43;;;2.80;;
21546;SDS011;41275;51.912;4.388;2022-09-06T23:43:39;7.72;;;2.60;;
21546;SDS011;41275;51.912;4.388;2022-09-06T23:49:01;7.65;;;3.35;;
21546;SDS011;41275;51.912;4.388;2022-09-06T23:54:23;6.70;;;2.90;;
21546;SDS011;41275;51.912;4.388;2022-09-06T23:59:44;7.87;;;2.67;;
